Terminal Aerodrome Forecast
Issued by NWS Wilmington, OH

Current Version | Previous Version | Graphics & Text | Print | Product List | Glossary On
Versions: 1 2 3 4 5 6 7 8 9 10 11 12
102
FTUS41 KILN 181720
TAFDAY
TAF
KDAY 181720Z 1818/1918 27012G20KT P6SM BKN035
     FM182300 23005KT P6SM FEW035 SCT250
     FM191200 22007KT P6SM -SHRA OVC060
     FM191600 28010G18KT P6SM OVC040=

USA.gov is the U.S. government's official web portal to all federal, state and local government web resources and services.